createdAt,value
2023-05-08T00:01:46.189Z,4.40
2023-05-08T00:04:14.484Z,4.33
2023-05-08T00:06:42.632Z,4.73
2023-05-08T00:09:11.068Z,4.97
2023-05-08T00:11:40.307Z,4.80
2023-05-08T00:14:08.242Z,4.97
2023-05-08T00:16:36.124Z,4.77
2023-05-08T00:19:04.139Z,4.57
2023-05-08T00:21:32.270Z,5.13
2023-05-08T00:24:00.135Z,4.93
2023-05-08T00:26:27.994Z,5.13
2023-05-08T00:28:57.227Z,5.37
2023-05-08T00:31:25.143Z,5.37
2023-05-08T00:33:53.072Z,5.43
2023-05-08T00:36:20.984Z,5.30
2023-05-08T00:38:48.843Z,5.50
2023-05-08T00:41:17.183Z,5.90
2023-05-08T00:43:45.025Z,5.47
2023-05-08T00:46:15.276Z,5.83
2023-05-08T00:48:45.065Z,5.83
2023-05-08T00:51:13.341Z,6.00
2023-05-08T00:53:45.335Z,5.83
2023-05-08T00:56:16.826Z,5.77
2023-05-08T00:58:45.645Z,6.30
2023-05-08T01:01:16.021Z,6.10
2023-05-08T01:03:44.885Z,5.97
2023-05-08T01:06:12.774Z,5.70
2023-05-08T01:08:41.001Z,5.77
2023-05-08T01:11:18.406Z,5.80
2023-05-08T01:13:53.076Z,5.63
2023-05-08T01:16:28.256Z,6.17
2023-05-08T01:19:02.724Z,6.00
2023-05-08T01:21:39.705Z,5.43
2023-05-08T01:24:26.339Z,6.27
2023-05-08T01:27:37.663Z,6.70
2023-05-08T01:30:31.664Z,6.37
2023-05-08T01:33:08.967Z,6.20
2023-05-08T01:35:48.744Z,6.37
2023-05-08T01:38:23.863Z,6.53
2023-05-08T01:40:55.669Z,5.83
2023-05-08T01:43:39.640Z,6.27
2023-05-08T01:46:14.438Z,5.90
2023-05-08T01:48:50.443Z,6.23
2023-05-08T01:51:22.756Z,6.40
2023-05-08T01:53:53.460Z,6.50
2023-05-08T01:56:23.813Z,6.00
2023-05-08T01:58:53.174Z,5.50
2023-05-08T02:01:24.606Z,5.80
2023-05-08T02:03:56.315Z,5.97
2023-05-08T02:06:26.817Z,6.20
2023-05-08T02:08:55.931Z,5.60
2023-05-08T02:11:25.375Z,6.03
2023-05-08T02:13:57.987Z,6.13
2023-05-08T02:16:27.122Z,5.90
2023-05-08T02:18:58.180Z,6.47
2023-05-08T02:21:27.623Z,6.07
2023-05-08T02:23:57.485Z,5.63
2023-05-08T02:26:26.355Z,5.50
2023-05-08T02:28:55.809Z,5.87
2023-05-08T02:31:24.251Z,6.20
2023-05-08T02:33:54.463Z,5.67
2023-05-08T02:36:24.557Z,5.83
2023-05-08T02:38:54.962Z,6.20
2023-05-08T02:41:25.351Z,5.53
2023-05-08T02:43:53.313Z,6.13
2023-05-08T02:46:26.941Z,6.57
2023-05-08T02:48:59.977Z,6.80
2023-05-08T02:51:34.669Z,6.10
2023-05-08T02:54:11.368Z,6.03
2023-05-08T02:56:45.152Z,6.03
2023-05-08T02:59:21.323Z,6.73
2023-05-08T03:01:53.417Z,6.13
2023-05-08T03:04:28.177Z,6.80
2023-05-08T03:06:59.336Z,6.00
2023-05-08T03:09:33.426Z,6.53
2023-05-08T03:12:07.529Z,6.63
2023-05-08T03:14:41.679Z,6.57
2023-05-08T03:17:14.189Z,6.93
2023-05-08T03:19:46.194Z,6.23
2023-05-08T03:22:16.618Z,6.40
2023-05-08T03:24:47.343Z,6.47
2023-05-08T03:27:17.135Z,6.33
2023-05-08T03:29:46.338Z,6.00
2023-05-08T03:32:15.337Z,6.43
2023-05-08T03:34:43.457Z,6.47
2023-05-08T03:37:11.438Z,6.17
2023-05-08T03:39:40.714Z,6.73
2023-05-08T03:42:08.612Z,6.47
2023-05-08T03:44:37.274Z,6.30
2023-05-08T03:47:06.616Z,6.53
2023-05-08T03:49:36.521Z,6.90
2023-05-08T03:52:05.257Z,6.13
2023-05-08T03:54:33.052Z,6.00
2023-05-08T03:57:02.295Z,5.73
2023-05-08T03:59:42.558Z,6.90
2023-05-08T04:02:20.943Z,6.37
2023-05-08T04:04:56.799Z,6.03
2023-05-08T04:07:29.826Z,6.20
2023-05-08T04:10:04.844Z,6.40
2023-05-08T04:12:41.489Z,5.87
2023-05-08T04:15:16.426Z,6.57
2023-05-08T04:17:50.448Z,5.70
2023-05-08T04:20:21.829Z,5.93
2023-05-08T04:22:53.318Z,6.43
2023-05-08T04:25:21.522Z,6.07
2023-05-08T04:27:52.304Z,6.07
2023-05-08T04:30:20.554Z,5.80
2023-05-08T04:32:49.529Z,5.87
2023-05-08T04:35:17.451Z,5.97
2023-05-08T04:37:46.952Z,6.10
2023-05-08T04:40:15.187Z,6.83
2023-05-08T04:42:47.433Z,5.93
2023-05-08T04:45:17.404Z,5.67
2023-05-08T04:47:45.415Z,6.00
2023-05-08T04:50:13.406Z,5.53
2023-05-08T04:52:41.457Z,5.30
2023-05-08T04:55:10.764Z,4.87
2023-05-08T04:57:38.685Z,5.13
2023-05-08T05:00:07.957Z,4.80
2023-05-08T05:02:37.720Z,4.50
2023-05-08T05:05:06.248Z,4.35
2023-05-08T05:07:34.217Z,5.57
2023-05-08T05:10:02.331Z,4.53
2023-05-08T05:12:30.211Z,4.10
2023-05-08T05:14:58.019Z,4.07
2023-05-08T05:17:30.145Z,4.38
2023-05-08T05:20:00.485Z,4.53
2023-05-08T05:22:29.012Z,4.05
2023-05-08T05:24:56.768Z,3.90
2023-05-08T05:27:24.646Z,3.97
2023-05-08T05:29:52.585Z,4.03
2023-05-08T05:32:20.675Z,3.70
2023-05-08T05:34:48.536Z,3.80
2023-05-08T05:37:17.727Z,3.50
2023-05-08T05:39:45.524Z,3.60
2023-05-08T05:42:13.930Z,3.83
2023-05-08T05:44:41.905Z,3.78
2023-05-08T05:47:11.168Z,3.60
2023-05-08T05:49:39.715Z,3.67
2023-05-08T05:52:07.620Z,3.58
2023-05-08T05:54:36.867Z,3.72
2023-05-08T05:57:04.817Z,3.58
2023-05-08T05:59:32.763Z,3.50
2023-05-08T06:02:00.713Z,3.40
2023-05-08T06:04:28.837Z,3.35
2023-05-08T06:06:57.640Z,4.10
2023-05-08T06:09:25.702Z,3.17
2023-05-08T06:11:55.255Z,3.25
2023-05-08T06:14:23.129Z,2.90
2023-05-08T06:16:51.338Z,2.80
2023-05-08T06:19:19.282Z,2.95
2023-05-08T06:21:47.088Z,2.72
2023-05-08T06:24:14.912Z,2.70
2023-05-08T06:26:42.856Z,2.50
2023-05-08T06:29:12.338Z,2.53
2023-05-08T06:31:40.329Z,2.40
2023-05-08T06:34:08.290Z,2.53
2023-05-08T06:36:36.425Z,2.47
2023-05-08T06:39:06.084Z,2.42
2023-05-08T06:41:34.331Z,2.60
2023-05-08T06:44:02.084Z,2.40
2023-05-08T06:46:31.274Z,2.50
2023-05-08T06:48:59.202Z,2.50
2023-05-08T06:51:27.268Z,2.67
2023-05-08T06:53:55.069Z,2.22
2023-05-08T06:56:22.969Z,2.60
2023-05-08T06:59:04.496Z,2.13
2023-05-08T07:01:37.479Z,2.42
2023-05-08T07:04:06.093Z,2.30
2023-05-08T07:06:34.238Z,2.08
2023-05-08T07:09:02.094Z,2.25
2023-05-08T07:11:29.890Z,2.10
2023-05-08T07:13:57.717Z,2.00
2023-05-08T07:16:25.580Z,2.10
2023-05-08T07:18:55.042Z,1.85
2023-05-08T07:21:26.392Z,2.13
2023-05-08T07:23:54.676Z,2.13
2023-05-08T07:26:22.732Z,2.35
2023-05-08T07:28:53.915Z,2.42
2023-05-08T07:31:22.098Z,2.38
2023-05-08T07:33:50.011Z,2.00
2023-05-08T07:36:19.336Z,2.10
2023-05-08T07:38:47.315Z,2.10
2023-05-08T07:41:15.157Z,2.10
2023-05-08T07:43:43.603Z,2.20
2023-05-08T07:46:17.813Z,2.30
2023-05-08T07:48:45.743Z,2.60
2023-05-08T07:51:13.803Z,2.05
2023-05-08T07:53:43.041Z,1.90
2023-05-08T07:56:11.078Z,2.33
2023-05-08T07:58:39.070Z,2.13
2023-05-08T08:01:07.097Z,2.22
2023-05-08T08:03:35.158Z,2.25
2023-05-08T08:06:03.053Z,2.00
2023-05-08T08:08:31.024Z,2.28
2023-05-08T08:11:02.227Z,1.77
2023-05-08T08:13:31.752Z,1.90
2023-05-08T08:15:59.927Z,2.20
2023-05-08T08:18:28.620Z,2.28
2023-05-08T08:20:56.804Z,2.00
2023-05-08T08:23:25.632Z,2.03
2023-05-08T08:25:53.449Z,2.20
2023-05-08T08:28:22.740Z,1.90
2023-05-08T08:30:51.139Z,2.05
2023-05-08T08:33:20.845Z,2.17
2023-05-08T08:35:48.675Z,2.20
2023-05-08T08:38:16.902Z,2.13
2023-05-08T08:40:45.462Z,2.38
2023-05-08T08:43:13.644Z,2.30
2023-05-08T08:45:42.800Z,2.70
2023-05-08T08:48:12.816Z,2.10
2023-05-08T08:50:44.961Z,2.75
2023-05-08T08:53:20.072Z,2.28
2023-05-08T08:55:52.521Z,2.30
2023-05-08T08:58:25.629Z,3.00
2023-05-08T09:00:56.303Z,2.00
2023-05-08T09:03:24.438Z,2.08
2023-05-08T09:05:52.682Z,2.03
2023-05-08T09:08:20.482Z,2.13
2023-05-08T09:10:48.404Z,2.53
2023-05-08T09:13:17.329Z,2.00
2023-05-08T09:15:46.860Z,2.42
2023-05-08T09:18:16.168Z,2.00
2023-05-08T09:20:45.546Z,1.83
2023-05-08T09:23:14.718Z,2.33
2023-05-08T09:25:43.529Z,2.20
2023-05-08T09:28:18.428Z,1.90
2023-05-08T09:30:53.862Z,1.85
2023-05-08T09:33:25.306Z,1.83
2023-05-08T09:35:53.171Z,2.00
2023-05-08T09:38:37.805Z,2.78
2023-05-08T09:41:11.070Z,1.95
2023-05-08T09:43:39.977Z,1.98
2023-05-08T09:46:24.773Z,1.83
2023-05-08T09:48:55.258Z,1.85
2023-05-08T09:51:23.653Z,1.80
2023-05-08T09:53:53.272Z,2.30
2023-05-08T09:56:39.441Z,1.90
2023-05-08T09:59:24.172Z,2.00
2023-05-08T10:01:52.147Z,1.90
2023-05-08T10:04:33.028Z,2.58
2023-05-08T10:07:01.788Z,2.45
2023-05-08T10:09:42.532Z,4.28
2023-05-08T10:12:17.599Z,2.13
2023-05-08T10:14:46.994Z,2.00
2023-05-08T10:17:21.925Z,2.15
2023-05-08T10:19:56.662Z,2.13
2023-05-08T10:22:26.537Z,4.55
2023-05-08T10:24:58.559Z,2.33
2023-05-08T10:27:36.788Z,2.17
2023-05-08T10:30:06.468Z,2.20
2023-05-08T10:32:40.690Z,2.00
2023-05-08T10:35:13.015Z,2.30
2023-05-08T10:37:42.266Z,1.75
2023-05-08T10:40:12.163Z,1.75
2023-05-08T10:42:41.121Z,1.55
2023-05-08T10:45:10.693Z,1.77
2023-05-08T10:47:49.788Z,3.63
2023-05-08T10:50:34.919Z,2.50
2023-05-08T10:53:08.445Z,3.88
2023-05-08T10:55:38.588Z,1.92
2023-05-08T10:58:10.462Z,2.08
2023-05-08T11:01:13.678Z,1.80
2023-05-08T11:03:43.450Z,1.58
2023-05-08T11:06:13.436Z,2.20
2023-05-08T11:08:47.823Z,1.70
2023-05-08T11:11:29.591Z,1.70
2023-05-08T11:14:10.757Z,1.55
2023-05-08T11:17:07.248Z,1.70
2023-05-08T11:19:36.598Z,1.67
2023-05-08T11:22:30.851Z,1.83
2023-05-08T11:25:04.091Z,2.08
2023-05-08T11:27:38.348Z,1.92
2023-05-08T11:30:35.676Z,1.70
2023-05-08T11:33:25.006Z,1.50
2023-05-08T11:35:56.000Z,1.90
2023-05-08T11:38:34.247Z,2.00
2023-05-08T11:41:07.541Z,2.15
2023-05-08T11:44:14.916Z,1.73
2023-05-08T11:46:45.905Z,1.50
2023-05-08T11:49:16.658Z,1.65
2023-05-08T11:51:46.666Z,1.55
2023-05-08T11:54:17.842Z,1.88
2023-05-08T11:56:48.153Z,1.60
2023-05-08T11:59:16.851Z,1.52
2023-05-08T12:01:53.554Z,1.55
2023-05-08T12:04:25.952Z,1.60
2023-05-08T12:06:58.741Z,1.48
2023-05-08T12:09:28.335Z,1.70
2023-05-08T12:11:59.048Z,1.88
2023-05-08T12:14:27.465Z,1.90
2023-05-08T12:16:55.680Z,1.35
2023-05-08T12:19:23.653Z,1.60
2023-05-08T12:21:51.644Z,1.30
2023-05-08T12:24:23.022Z,1.52
2023-05-08T12:26:55.807Z,1.52
2023-05-08T12:29:24.123Z,1.48
2023-05-08T12:31:53.784Z,1.45
2023-05-08T12:34:21.868Z,1.65
2023-05-08T12:36:51.256Z,1.63
2023-05-08T12:39:20.019Z,1.27
2023-05-08T12:41:48.870Z,1.52
2023-05-08T12:44:26.009Z,1.40
2023-05-08T12:46:55.374Z,1.65
2023-05-08T12:49:30.898Z,1.67
2023-05-08T12:52:03.643Z,1.55
2023-05-08T12:54:38.758Z,1.70
2023-05-08T12:57:13.844Z,1.80
2023-05-08T12:59:44.261Z,1.77
2023-05-08T13:02:17.178Z,1.60
2023-05-08T13:04:45.851Z,2.00
2023-05-08T13:07:14.119Z,1.65
2023-05-08T13:09:57.440Z,2.38
2023-05-08T13:12:25.312Z,1.52
2023-05-08T13:14:54.720Z,2.33
2023-05-08T13:17:22.778Z,1.50
2023-05-08T13:19:50.661Z,1.95
2023-05-08T13:22:18.417Z,1.30
2023-05-08T13:24:46.234Z,1.27
2023-05-08T13:27:14.709Z,1.60
2023-05-08T13:29:42.772Z,1.60
2023-05-08T13:32:12.122Z,1.63
2023-05-08T13:34:47.510Z,1.67
2023-05-08T13:37:17.984Z,1.67
2023-05-08T13:39:45.880Z,1.65
2023-05-08T13:42:13.790Z,1.60
2023-05-08T13:44:41.815Z,2.05
2023-05-08T13:47:12.339Z,1.70
2023-05-08T13:49:40.179Z,1.42
2023-05-08T13:52:08.916Z,1.33
2023-05-08T13:54:36.816Z,1.40
2023-05-08T14:00:47.522Z,1.77
2023-05-08T14:03:16.766Z,1.58
2023-05-08T14:05:44.628Z,1.35
2023-05-08T14:08:12.473Z,1.95
2023-05-08T14:10:40.817Z,1.20
2023-05-08T14:13:08.770Z,1.70
2023-05-08T14:15:37.640Z,1.60
2023-05-08T14:18:06.018Z,1.63
2023-05-08T14:20:35.463Z,2.00
2023-05-08T14:23:03.445Z,1.20
2023-05-08T14:25:31.221Z,1.50
2023-05-08T14:27:59.127Z,1.80
2023-05-08T14:30:28.226Z,1.88
2023-05-08T14:32:56.069Z,1.40
2023-05-08T14:35:23.928Z,1.80
2023-05-08T14:37:53.026Z,1.20
2023-05-08T14:40:22.068Z,1.67
2023-05-08T14:42:51.747Z,2.00
2023-05-08T14:45:19.510Z,1.48
2023-05-08T14:47:47.298Z,1.58
2023-05-08T14:50:15.064Z,1.52
2023-05-08T14:52:42.966Z,1.30
2023-05-08T14:55:13.134Z,1.65
2023-05-08T14:57:41.351Z,1.73
2023-05-08T15:00:10.775Z,1.70
2023-05-08T15:02:38.779Z,1.73
2023-05-08T15:05:11.125Z,1.90
2023-05-08T15:07:45.147Z,1.38
2023-05-08T15:10:14.457Z,1.70
2023-05-08T15:12:42.364Z,1.60
2023-05-08T15:15:10.544Z,1.50
2023-05-08T15:17:41.384Z,1.20
2023-05-08T15:20:10.357Z,1.60
2023-05-08T15:22:38.235Z,1.30
2023-05-08T15:25:07.205Z,1.70
2023-05-08T15:27:36.661Z,1.52
2023-05-08T15:30:04.999Z,1.67
2023-05-08T15:32:32.923Z,1.77
2023-05-08T15:35:00.707Z,1.80
2023-05-08T15:37:28.569Z,1.40
2023-05-08T15:39:56.236Z,1.55
2023-05-08T15:42:23.890Z,1.25
2023-05-08T15:44:57.006Z,1.80
2023-05-08T15:47:26.998Z,1.83
2023-05-08T15:49:54.996Z,1.60
2023-05-08T15:52:22.770Z,1.60
2023-05-08T15:54:50.793Z,1.88
2023-05-08T15:57:18.554Z,1.92
2023-05-08T15:59:46.664Z,1.35
2023-05-08T16:02:18.982Z,1.40
2023-05-08T16:04:46.767Z,1.50
2023-05-08T16:07:17.792Z,1.63
2023-05-08T16:09:45.897Z,1.67
2023-05-08T16:12:13.793Z,1.80
2023-05-08T16:14:41.515Z,1.92
2023-05-08T16:17:09.191Z,1.63
2023-05-08T16:19:41.334Z,1.75
2023-05-08T16:22:09.065Z,1.70
2023-05-08T16:24:36.796Z,2.00
2023-05-08T16:27:04.545Z,1.67
2023-05-08T16:29:32.182Z,1.80
2023-05-08T16:31:59.887Z,1.42
2023-05-08T16:34:29.506Z,1.70
2023-05-08T16:36:59.252Z,1.50
2023-05-08T16:39:26.992Z,1.50
2023-05-08T16:41:54.660Z,1.52
2023-05-08T16:44:22.536Z,1.65
2023-05-08T16:46:50.283Z,1.65
2023-05-08T16:49:18.181Z,1.75
2023-05-08T16:51:46.019Z,1.75
2023-05-08T16:54:15.175Z,1.60
2023-05-08T16:56:43.016Z,1.92
2023-05-08T16:59:10.933Z,1.73
2023-05-08T17:01:38.958Z,1.95
2023-05-08T17:04:06.638Z,1.88
2023-05-08T17:06:34.472Z,1.70
2023-05-08T17:09:02.138Z,1.58
2023-05-08T17:11:31.220Z,1.88
2023-05-08T17:13:59.315Z,1.95
2023-05-08T17:16:27.233Z,1.92
2023-05-08T17:18:55.099Z,1.67
2023-05-08T17:21:22.923Z,1.80
2023-05-08T17:23:50.715Z,2.08
2023-05-08T17:26:18.541Z,1.90
2023-05-08T17:28:47.627Z,1.83
2023-05-08T17:31:15.904Z,1.95
2023-05-08T17:33:43.732Z,2.20
2023-05-08T17:36:12.293Z,2.00
2023-05-08T17:38:45.567Z,1.73
2023-05-08T17:41:13.433Z,1.88
2023-05-08T17:43:41.547Z,2.00
2023-05-08T17:46:10.862Z,2.22
2023-05-08T17:48:38.630Z,2.20
2023-05-08T17:51:06.373Z,2.10
2023-05-08T17:53:34.019Z,2.53
2023-05-08T17:56:01.649Z,1.92
2023-05-08T17:58:29.360Z,1.90
2023-05-08T18:00:57.087Z,2.30
2023-05-08T18:03:26.288Z,1.90
2023-05-08T18:05:54.048Z,2.20
2023-05-08T18:08:21.924Z,1.80
2023-05-08T18:10:49.566Z,2.10
2023-05-08T18:13:17.317Z,1.90
2023-05-08T18:15:45.048Z,1.70
2023-05-08T18:18:12.738Z,2.10
2023-05-08T18:20:41.841Z,1.90
2023-05-08T18:23:09.464Z,2.22
2023-05-08T18:25:37.165Z,1.80
2023-05-08T18:28:05.021Z,1.80
2023-05-08T18:30:36.247Z,2.00
2023-05-08T18:33:04.147Z,1.73
2023-05-08T18:35:31.914Z,2.00
2023-05-08T18:38:02.228Z,1.90
2023-05-08T18:40:29.973Z,2.25
2023-05-08T18:42:57.986Z,2.10
2023-05-08T18:45:25.651Z,2.03
2023-05-08T18:47:54.193Z,1.83
2023-05-08T18:50:22.122Z,2.03
2023-05-08T18:52:49.952Z,1.80
2023-05-08T18:55:19.120Z,1.85
2023-05-08T18:57:46.944Z,1.90
2023-05-08T19:00:16.278Z,1.95
2023-05-08T19:02:44.086Z,1.85
2023-05-08T19:05:11.951Z,1.85
2023-05-08T19:07:39.744Z,1.90
2023-05-08T19:10:09.032Z,2.58
2023-05-08T19:12:38.194Z,2.40
2023-05-08T19:15:08.653Z,1.90
2023-05-08T19:17:36.956Z,2.22
2023-05-08T19:20:05.734Z,2.67
2023-05-08T19:22:35.716Z,2.42
2023-05-08T19:25:04.280Z,2.58
2023-05-08T19:27:32.215Z,1.77
2023-05-08T19:30:01.415Z,2.17
2023-05-08T19:32:29.149Z,2.10
2023-05-08T19:34:57.603Z,2.25
2023-05-08T19:37:25.520Z,2.00
2023-05-08T19:39:54.343Z,1.95
2023-05-08T19:42:22.136Z,1.80
2023-05-08T19:44:50.051Z,2.45
2023-05-08T19:47:19.443Z,2.22
2023-05-08T19:49:47.177Z,2.58
2023-05-08T19:52:14.938Z,2.33
2023-05-08T19:54:44.538Z,2.70
2023-05-08T19:57:12.291Z,2.30
2023-05-08T19:59:40.142Z,1.92
2023-05-08T20:02:08.299Z,2.15
2023-05-08T20:04:57.454Z,2.20
2023-05-08T20:07:25.109Z,2.20
2023-05-08T20:09:52.892Z,3.35
2023-05-08T20:12:20.805Z,2.50
2023-05-08T20:14:48.743Z,2.50
2023-05-08T20:17:16.544Z,2.70
2023-05-08T20:19:45.865Z,2.80
2023-05-08T20:22:13.587Z,2.70
2023-05-08T20:24:41.280Z,3.05
2023-05-08T20:27:09.156Z,2.67
2023-05-08T20:29:37.048Z,2.40
2023-05-08T20:32:04.825Z,2.13
2023-05-08T20:34:32.524Z,3.08
2023-05-08T20:37:03.761Z,2.30
2023-05-08T20:39:31.545Z,2.40
2023-05-08T20:41:59.790Z,2.33
2023-05-08T20:44:27.546Z,2.90
2023-05-08T20:46:55.275Z,3.03
2023-05-08T20:49:23.027Z,2.60
2023-05-08T20:51:50.744Z,2.72
2023-05-08T20:54:19.803Z,3.10
2023-05-08T20:56:47.541Z,2.83
2023-05-08T20:59:16.458Z,2.90
2023-05-08T21:01:44.397Z,3.25
2023-05-08T21:04:12.148Z,3.10
2023-05-08T21:06:39.884Z,2.47
2023-05-08T21:09:07.583Z,2.70
2023-05-08T21:11:36.640Z,3.17
2023-05-08T21:14:04.527Z,2.85
2023-05-08T21:16:32.325Z,4.05
2023-05-08T21:19:00.059Z,2.80
2023-05-08T21:21:27.897Z,2.75
2023-05-08T21:23:55.650Z,3.35
2023-05-08T21:26:24.090Z,2.92
2023-05-08T21:28:54.776Z,2.92
2023-05-08T21:31:22.799Z,3.00
2023-05-08T21:33:51.885Z,3.00
2023-05-08T21:36:19.535Z,3.45
2023-05-08T21:38:47.220Z,2.60
2023-05-08T21:41:15.036Z,3.22
2023-05-08T21:43:44.475Z,2.78
2023-05-08T21:46:13.609Z,3.40
2023-05-08T21:48:41.320Z,2.78
2023-05-08T21:51:09.292Z,3.33
2023-05-08T21:53:37.022Z,2.80
2023-05-08T21:56:05.082Z,3.25
2023-05-08T21:58:32.833Z,3.77
2023-05-08T22:01:00.564Z,3.10
2023-05-08T22:03:30.658Z,3.22
2023-05-08T22:05:58.556Z,2.95
2023-05-08T22:08:26.319Z,3.05
2023-05-08T22:10:54.149Z,2.92
2023-05-08T22:13:22.035Z,3.43
2023-05-08T22:15:49.998Z,2.75
2023-05-08T22:18:18.059Z,3.00
2023-05-08T22:20:47.221Z,3.00
2023-05-08T22:23:15.023Z,3.20
2023-05-08T22:25:42.913Z,3.15
2023-05-08T22:28:10.758Z,3.13
2023-05-08T22:30:38.569Z,3.00
2023-05-08T22:33:06.556Z,3.50
2023-05-08T22:35:34.386Z,2.97
2023-05-08T22:38:03.486Z,3.07
2023-05-08T22:40:31.269Z,3.53
2023-05-08T22:43:00.183Z,3.07
2023-05-08T22:45:28.880Z,3.47
2023-05-08T22:47:56.948Z,3.63
2023-05-08T22:50:24.867Z,3.45
2023-05-08T22:52:52.590Z,3.38
2023-05-08T22:55:21.852Z,3.72
2023-05-08T22:57:49.590Z,3.30
2023-05-08T23:00:17.412Z,3.53
2023-05-08T23:02:45.197Z,3.30
2023-05-08T23:05:13.204Z,3.37
2023-05-08T23:07:41.843Z,3.27
2023-05-08T23:10:10.402Z,3.47
2023-05-08T23:12:39.522Z,3.40
2023-05-08T23:15:08.403Z,3.50
2023-05-08T23:17:36.282Z,3.80
2023-05-08T23:20:05.803Z,3.40
2023-05-08T23:22:33.515Z,3.30
2023-05-08T23:25:01.329Z,4.00
2023-05-08T23:27:29.154Z,3.67
2023-05-08T23:29:58.357Z,3.70
2023-05-08T23:32:26.160Z,3.23
2023-05-08T23:34:53.863Z,3.10
2023-05-08T23:37:21.597Z,3.60
2023-05-08T23:39:49.642Z,3.33
2023-05-08T23:42:17.403Z,3.73
2023-05-08T23:44:45.241Z,3.90
2023-05-08T23:47:14.806Z,4.03
2023-05-08T23:49:42.629Z,3.67
2023-05-08T23:52:10.513Z,3.97
2023-05-08T23:54:38.232Z,4.30
2023-05-08T23:57:05.980Z,4.07
2023-05-08T23:59:33.780Z,4.20
